Cambridge City, IN (47327)

04:51 AM EDT del 29 Agosto 2016 (GMT -0400)
GSF K9APR | | Change Station

Alt. 1100 ft 39.89 °N, 85.03 °W | Updated 3 seconds ago

Clear
Sereno
66.9 °F
Sembra 66.9 °F
N
0.0
Vento Variabile Vento da Ovest
Gusts 0.0 mph

Oggi
Massima -- | Minima -- °F
--% Possibilità di precip.
Ieri
Massima -- | Minima -- °F
Precip. -- in
Pressione 30.17 in
Visibilità 7.0 miglia
Nuvole Sereno
Punto di rugiada 67 °F
Umidità 99%
Piovosità 0.00 in
Spessore del manto nevoso Non disponibile.
7:06 AM 8:15 PM
Luna calante, 10% visible
METAR KMIE 290753Z AUTO 07003KT 7SM CLR 21/20 A3020 RMK AO2 SLP214 T02060200
Pressione 30.17 in
Visibilità 7.0 miglia
Nuvole Sereno
Punto di rugiada 67 °F
Umidità 99%
Piovosità 0.00 in
Spessore del manto nevoso Non disponibile.
7:06 AM 8:15 PM
Luna calante, 10% visible
METAR KMIE 290753Z AUTO 07003KT 7SM CLR 21/20 A3020 RMK AO2 SLP214 T02060200

10-Day Weather Forecast

Almanac

Astronomia

Aug. 29, 2016 Alba Tramonto
Ora attuale
Crepuscolo civile
Crepuscolo nautico
Crepuscolo astronomico
Luna
Estensione della luce visibile
Lunghezza del giorno
Tomorrow will be .
, % of the Moon is Illuminated

Gli estremi di oggi

State Highs State Lows

Community

WunderPhotos

Upload Photos

1,935,800 foto caricate!

WunderBlog® & News

Nearby

Qualità dell'aria

  Qualità dell'aria Indice AQ Inquinante
Not available.

Profondità neve

Stazione Profondità Altitudine

Attività sismica

Città  Distanza Mag. Data & Ora
Minimo Magnitudo Mostrato è 2.5.

Temperature delle acque costiere

Località Temperatura

Stations

Stazioni meteo nelle vicinanze

Ubicazione della stazione Temp. Raffreddamento del vento Punto di rugiada Umidità Vento Precip. Alt. Aggiornato Tipo
                   

Watches & Warnings

There are currently no watches in effect.